Time;durP1;ratioP1;P1;durP2;ratioP2;P2;SDS_P1;SDS_P2;PMS_P1;PMS_P2;Temp;Humidity;BMP_temperature;BMP_pressure;BME280_temperature;BME280_humidity;BME280_pressure;Samples;Min_cycle;Max_cycle;Signal;HPM_P1;HPM_P2
2023/05/07 00:00:08;;;;;;;0.88;0.88;;;15.80;99.90;;;;;;5032979;28;20204;-62
2023/05/07 00:02:37;;;;;;;0.70;0.70;;;15.80;99.90;;;;;;5034851;28;20299;-63
2023/05/07 00:05:04;;;;;;;1.13;0.93;;;15.80;99.90;;;;;;5032240;28;20205;-63
2023/05/07 00:07:31;;;;;;;0.77;0.77;;;15.80;99.90;;;;;;5032724;28;20201;-63
2023/05/07 00:09:58;;;;;;;0.63;0.63;;;15.70;99.90;;;;;;5032103;28;20208;-64
2023/05/07 00:12:25;;;;;;;0.82;0.82;;;15.80;99.90;;;;;;5033386;28;20216;-63
2023/05/07 00:14:52;;;;;;;0.95;0.70;;;15.80;99.90;;;;;;5031955;28;20789;-63
2023/05/07 00:17:18;;;;;;;0.90;0.90;;;15.70;99.90;;;;;;5032194;28;20220;-62
2023/05/07 00:19:47;;;;;;;1.15;0.70;;;15.70;99.90;;;;;;5031662;28;20223;-62
2023/05/07 00:22:14;;;;;;;0.90;0.90;;;15.70;99.90;;;;;;5031827;28;20282;-62
2023/05/07 00:24:41;;;;;;;0.90;0.90;;;15.70;99.90;;;;;;5032474;28;20327;-62
2023/05/07 00:27:07;;;;;;;0.60;0.60;;;15.60;99.90;;;;;;5034080;28;20200;-62
2023/05/07 00:29:34;;;;;;;0.80;0.80;;;15.70;99.90;;;;;;5035807;28;20208;-63
2023/05/07 00:32:01;;;;;;;0.90;0.90;;;15.60;99.90;;;;;;5040096;28;20221;-62
2023/05/07 00:34:28;;;;;;;1.00;0.90;;;15.60;99.90;;;;;;5037196;28;20699;-65
2023/05/07 00:36:56;;;;;;;0.77;0.77;;;15.60;99.90;;;;;;5033078;28;20231;-64
2023/05/07 00:39:23;;;;;;;1.00;1.00;;;15.50;99.90;;;;;;5032114;28;20216;-63
2023/05/07 00:41:51;;;;;;;0.88;0.88;;;15.50;99.90;;;;;;5032347;28;20231;-63
2023/05/07 00:44:18;;;;;;;1.08;0.70;;;15.50;99.90;;;;;;5031531;28;20667;-62
2023/05/07 00:46:48;;;;;;;0.85;0.85;;;15.50;99.90;;;;;;5034674;28;20220;-62
2023/05/07 00:49:15;;;;;;;1.35;0.90;;;15.50;99.90;;;;;;5042770;28;20211;-62
2023/05/07 00:51:42;;;;;;;0.80;0.80;;;15.50;99.90;;;;;;5043805;28;20721;-62
2023/05/07 00:54:11;;;;;;;0.70;0.70;;;15.50;99.90;;;;;;5035792;28;20300;-62
2023/05/07 00:56:39;;;;;;;0.73;0.73;;;15.40;99.90;;;;;;5035112;28;20201;-62
2023/05/07 00:59:07;;;;;;;0.80;0.80;;;15.60;99.90;;;;;;5035197;28;20196;-61
2023/05/07 01:01:33;;;;;;;0.85;0.85;;;15.40;99.90;;;;;;5035808;28;20237;-62
2023/05/07 01:04:01;;;;;;;0.77;0.77;;;15.40;99.90;;;;;;5035143;28;20307;-64
2023/05/07 01:06:30;;;;;;;0.60;0.60;;;15.40;99.90;;;;;;5034208;28;20227;-64
2023/05/07 01:08:57;;;;;;;0.70;0.70;;;15.40;99.90;;;;;;5031592;28;20733;-63
2023/05/07 01:11:26;;;;;;;0.80;0.80;;;15.40;99.90;;;;;;5030876;28;20310;-62
2023/05/07 01:13:53;;;;;;;0.80;0.80;;;15.50;99.90;;;;;;5031414;28;20200;-63
2023/05/07 01:16:21;;;;;;;0.50;0.50;;;15.50;99.90;;;;;;5031641;28;20223;-63
2023/05/07 01:18:48;;;;;;;0.70;0.70;;;15.50;99.90;;;;;;5030996;28;20224;-63
2023/05/07 01:21:18;;;;;;;0.73;0.70;;;15.50;99.90;;;;;;5029006;28;20609;-61
2023/05/07 01:23:48;;;;;;;0.90;0.90;;;15.50;99.90;;;;;;5032345;28;20218;-63
2023/05/07 01:26:14;;;;;;;0.65;0.65;;;15.50;99.90;;;;;;5032613;28;20214;-64
2023/05/07 01:28:41;;;;;;;0.60;0.60;;;15.40;99.90;;;;;;5031768;28;20204;-63
2023/05/07 01:31:10;;;;;;;0.90;0.90;;;15.40;99.90;;;;;;5030088;28;20231;-62
2023/05/07 01:33:38;;;;;;;0.60;0.60;;;15.30;99.90;;;;;;5030540;28;20209;-63
2023/05/07 01:36:08;;;;;;;0.80;0.80;;;15.20;99.90;;;;;;5030551;28;20212;-64
2023/05/07 01:38:35;;;;;;;0.70;0.70;;;15.20;99.90;;;;;;5030773;28;20254;-63
2023/05/07 01:41:04;;;;;;;0.80;0.80;;;15.10;99.90;;;;;;5029739;28;20605;-63
2023/05/07 01:43:31;;;;;;;0.80;0.80;;;14.90;99.90;;;;;;5030874;28;20208;-61
2023/05/07 01:45:59;;;;;;;0.88;0.88;;;14.80;99.90;;;;;;5031153;28;20209;-64
2023/05/07 01:48:27;;;;;;;0.80;0.80;;;14.80;99.90;;;;;;5030319;28;20663;-62
2023/05/07 01:50:54;;;;;;;0.80;0.80;;;14.80;99.90;;;;;;5025208;28;20243;-63
2023/05/07 01:53:21;;;;;;;1.10;1.00;;;14.80;99.90;;;;;;5030735;28;20204;-62
2023/05/07 01:55:48;;;;;;;1.02;1.00;;;14.80;99.90;;;;;;5030448;28;20559;-62
2023/05/07 01:58:16;;;;;;;0.70;0.70;;;14.80;99.90;;;;;;5029297;28;20232;-63
2023/05/07 02:00:42;;;;;;;0.80;0.80;;;14.70;99.90;;;;;;5030761;28;20711;-62
2023/05/07 02:03:09;;;;;;;1.35;0.88;;;14.60;99.90;;;;;;5031592;28;20217;-63
2023/05/07 02:05:36;;;;;;;1.57;0.70;;;14.70;99.90;;;;;;5032004;28;20208;-63
2023/05/07 02:08:03;;;;;;;0.60;0.60;;;14.70;99.90;;;;;;5032342;28;20208;-63
2023/05/07 02:10:30;;;;;;;1.00;1.00;;;14.60;99.90;;;;;;5035272;28;20237;-62
2023/05/07 02:12:57;;;;;;;0.60;0.60;;;14.50;99.90;;;;;;5032122;28;20218;-63
2023/05/07 02:15:25;;;;;;;0.80;0.80;;;14.50;99.90;;;;;;5031654;28;20209;-63
2023/05/07 02:18:03;;;;;;;0.63;0.63;;;14.40;99.90;;;;;;5030605;28;20232;-64
2023/05/07 02:20:30;;;;;;;0.90;0.90;;;14.40;99.90;;;;;;5029488;28;20224;-63
2023/05/07 02:22:57;;;;;;;0.60;0.60;;;14.40;99.90;;;;;;5030543;28;21041;-63
2023/05/07 02:25:24;;;;;;;0.80;0.70;;;14.20;99.90;;;;;;5030309;28;20204;-63
2023/05/07 02:27:50;;;;;;;0.80;0.80;;;14.20;99.90;;;;;;5030583;28;20205;-64
2023/05/07 02:30:17;;;;;;;0.80;0.80;;;14.30;99.90;;;;;;5029131;28;20607;-64
2023/05/07 02:32:45;;;;;;;0.70;0.70;;;14.30;99.90;;;;;;5030220;28;20208;-63
2023/05/07 02:35:12;;;;;;;0.53;0.53;;;14.20;99.90;;;;;;5030401;28;20204;-65
2023/05/07 02:37:39;;;;;;;0.90;0.90;;;14.20;99.90;;;;;;5030877;28;20220;-64
2023/05/07 02:40:07;;;;;;;0.75;0.75;;;14.10;99.90;;;;;;5029465;28;20209;-62
2023/05/07 02:42:34;;;;;;;0.90;0.90;;;14.10;99.90;;;;;;5030164;28;20288;-63
2023/05/07 02:45:01;;;;;;;0.70;0.70;;;14.00;99.90;;;;;;5030247;28;20219;-62
2023/05/07 02:47:28;;;;;;;0.98;0.98;;;14.00;99.90;;;;;;5035521;28;20215;-62
2023/05/07 02:49:56;;;;;;;0.75;0.75;;;13.90;99.90;;;;;;5034444;28;20204;-63
2023/05/07 02:52:23;;;;;;;2.60;0.85;;;13.90;99.90;;;;;;5034903;28;20674;-63
2023/05/07 02:54:50;;;;;;;0.73;0.73;;;14.00;99.90;;;;;;5035065;28;20215;-64
2023/05/07 02:57:17;;;;;;;1.02;0.95;;;14.10;99.90;;;;;;5034571;28;20212;-64
2023/05/07 02:59:43;;;;;;;0.70;0.70;;;14.10;99.90;;;;;;5034171;28;20212;-65
2023/05/07 03:02:10;;;;;;;0.70;0.70;;;14.10;99.90;;;;;;5032893;28;20224;-62
2023/05/07 03:04:37;;;;;;;0.70;0.70;;;14.10;99.90;;;;;;5033948;28;20201;-65
2023/05/07 03:07:05;;;;;;;0.73;0.73;;;14.10;99.90;;;;;;5033825;28;20675;-64
2023/05/07 03:09:32;;;;;;;0.68;0.68;;;14.10;99.90;;;;;;5032964;28;20211;-63
2023/05/07 03:11:59;;;;;;;0.63;0.63;;;14.00;99.90;;;;;;5033400;28;20726;-63
2023/05/07 03:14:26;;;;;;;0.80;0.80;;;14.00;99.90;;;;;;5033549;28;20295;-62
2023/05/07 03:16:52;;;;;;;0.90;0.90;;;13.90;99.90;;;;;;5033478;28;20207;-63
2023/05/07 03:19:19;;;;;;;0.80;0.80;;;13.90;99.90;;;;;;5032860;28;20586;-63
2023/05/07 03:21:46;;;;;;;0.77;0.77;;;13.80;99.90;;;;;;5033355;28;20224;-63
2023/05/07 03:24:14;;;;;;;0.88;0.88;;;13.70;99.90;;;;;;5033671;28;20209;-62
2023/05/07 03:26:41;;;;;;;0.80;0.80;;;13.70;99.90;;;;;;5033058;28;20208;-63
2023/05/07 03:29:08;;;;;;;0.70;0.70;;;13.70;99.90;;;;;;5033165;28;20220;-63
2023/05/07 03:31:34;;;;;;;0.90;0.90;;;13.80;99.90;;;;;;5033184;28;20612;-63
2023/05/07 03:34:01;;;;;;;1.20;1.00;;;13.80;99.90;;;;;;5035675;28;20205;-63
2023/05/07 03:36:28;;;;;;;0.73;0.73;;;13.80;99.90;;;;;;5035173;28;20201;-62
2023/05/07 03:38:55;;;;;;;0.90;0.90;;;13.70;99.90;;;;;;5035243;28;20606;-62
2023/05/07 03:41:23;;;;;;;0.80;0.80;;;13.70;99.90;;;;;;5033377;28;20225;-64
2023/05/07 03:43:50;;;;;;;0.80;0.80;;;13.70;99.90;;;;;;5032974;28;20208;-62
2023/05/07 03:46:17;;;;;;;0.80;0.80;;;13.60;99.90;;;;;;5034361;28;20219;-63
2023/05/07 03:48:43;;;;;;;0.80;0.80;;;13.80;99.90;;;;;;5037761;28;20204;-64
2023/05/07 03:51:10;;;;;;;0.80;0.80;;;13.80;99.90;;;;;;5032349;28;20737;-63
2023/05/07 03:53:37;;;;;;;1.03;0.93;;;13.80;99.90;;;;;;5032494;28;20215;-63
2023/05/07 03:56:04;;;;;;;0.82;0.82;;;13.80;99.90;;;;;;5032717;28;20208;-63
2023/05/07 03:58:32;;;;;;;0.80;0.80;;;13.80;99.90;;;;;;5032885;28;20266;-63
2023/05/07 04:00:59;;;;;;;0.73;0.73;;;13.80;99.90;;;;;;5031680;28;20225;-65
2023/05/07 04:03:26;;;;;;;0.68;0.68;;;13.80;99.90;;;;;;5032119;28;20698;-63
2023/05/07 04:05:53;;;;;;;0.80;0.80;;;13.80;99.90;;;;;;5032361;28;20208;-63
2023/05/07 04:08:20;;;;;;;0.60;0.60;;;13.80;99.90;;;;;;5032449;28;20322;-63
2023/05/07 04:10:46;;;;;;;0.80;0.80;;;13.80;99.90;;;;;;5029877;28;20738;-63
2023/05/07 04:13:13;;;;;;;0.88;0.88;;;13.80;99.90;;;;;;5034031;28;20213;-63
2023/05/07 04:15:41;;;;;;;0.70;0.70;;;13.70;99.90;;;;;;5033532;28;20205;-65
2023/05/07 04:18:08;;;;;;;0.80;0.80;;;13.70;99.90;;;;;;5036717;28;20225;-64
2023/05/07 04:20:36;;;;;;;1.75;1.13;;;13.70;99.90;;;;;;5031209;28;20220;-64
2023/05/07 04:23:03;;;;;;;1.00;1.00;;;13.60;99.90;;;;;;5032307;28;20266;-63
2023/05/07 04:25:30;;;;;;;1.07;1.07;;;13.60;99.90;;;;;;5032464;28;20201;-64
2023/05/07 04:27:57;;;;;;;1.10;1.00;;;13.60;99.90;;;;;;5032303;28;20220;-63
2023/05/07 04:30:24;;;;;;;0.80;0.80;;;13.70;99.90;;;;;;5031325;28;20235;-63
2023/05/07 04:32:52;;;;;;;0.80;0.80;;;13.70;99.90;;;;;;5031742;28;20204;-63
2023/05/07 04:35:20;;;;;;;0.70;0.70;;;13.60;99.90;;;;;;5032318;28;20208;-64
2023/05/07 04:37:46;;;;;;;0.90;0.90;;;13.70;99.90;;;;;;5032172;28;20219;-63
2023/05/07 04:40:13;;;;;;;0.70;0.70;;;13.80;99.90;;;;;;5031305;28;20780;-63
2023/05/07 04:42:40;;;;;;;0.93;0.93;;;13.90;99.90;;;;;;5032934;28;20262;-63
2023/05/07 04:45:08;;;;;;;1.57;0.90;;;13.90;99.90;;;;;;5033041;28;20205;-63
2023/05/07 04:47:35;;;;;;;1.00;1.00;;;13.90;99.90;;;;;;5030465;28;20254;-63
2023/05/07 04:50:04;;;;;;;0.80;0.80;;;13.90;99.90;;;;;;5031479;28;20230;-63
2023/05/07 04:52:31;;;;;;;1.00;1.00;;;13.90;99.90;;;;;;5032347;28;20209;-64
2023/05/07 04:55:00;;;;;;;0.80;0.80;;;14.00;99.90;;;;;;5031960;28;20679;-63
2023/05/07 04:57:26;;;;;;;0.80;0.80;;;14.00;99.90;;;;;;5031875;28;20205;-64
2023/05/07 04:59:53;;;;;;;0.70;0.70;;;14.10;99.90;;;;;;5030566;28;20235;-64
2023/05/07 05:02:20;;;;;;;0.90;0.90;;;14.20;99.90;;;;;;5031760;28;20212;-62
2023/05/07 05:04:47;;;;;;;0.80;0.80;;;14.30;99.90;;;;;;5031622;28;20209;-61
2023/05/07 05:07:15;;;;;;;0.93;0.93;;;14.40;99.90;;;;;;5030945;28;20291;-61
2023/05/07 05:09:42;;;;;;;0.90;0.90;;;14.50;99.90;;;;;;5030442;28;20207;-62
2023/05/07 05:12:09;;;;;;;0.70;0.70;;;14.60;99.90;;;;;;5030692;28;20275;-62
2023/05/07 05:14:35;;;;;;;0.80;0.80;;;14.70;99.90;;;;;;5030924;28;20205;-62
2023/05/07 05:17:02;;;;;;;0.80;0.80;;;14.90;99.90;;;;;;5030584;28;20300;-62
2023/05/07 05:19:29;;;;;;;0.70;0.70;;;15.00;99.90;;;;;;5030102;28;20287;-62
2023/05/07 05:21:56;;;;;;;0.77;0.77;;;15.10;99.90;;;;;;5030887;28;20228;-63
2023/05/07 05:24:24;;;;;;;0.70;0.70;;;15.20;99.90;;;;;;5030920;28;20207;-62
2023/05/07 05:26:53;;;;;;;0.80;0.80;;;15.20;99.90;;;;;;5031163;28;20208;-62
2023/05/07 05:29:20;;;;;;;1.00;1.00;;;15.30;99.90;;;;;;5029817;28;20219;-63
2023/05/07 05:31:47;;;;;;;0.70;0.70;;;15.30;99.90;;;;;;5030700;28;20225;-62
2023/05/07 05:34:14;;;;;;;1.10;1.10;;;15.40;99.90;;;;;;5030806;28;20299;-62
2023/05/07 05:36:41;;;;;;;0.95;0.90;;;15.50;99.90;;;;;;5030603;28;20204;-63
2023/05/07 05:39:08;;;;;;;1.00;1.00;;;15.50;99.90;;;;;;5030163;28;20224;-63
2023/05/07 05:41:36;;;;;;;0.97;0.97;;;15.40;99.90;;;;;;5030438;28;20231;-62
2023/05/07 05:44:03;;;;;;;1.15;1.05;;;15.80;99.90;;;;;;5030524;28;20295;-62
2023/05/07 05:46:31;;;;;;;0.90;0.90;;;15.80;99.90;;;;;;5031029;28;20209;-63
2023/05/07 05:48:58;;;;;;;0.80;0.80;;;16.00;99.90;;;;;;5028487;28;20204;-62
2023/05/07 05:51:24;;;;;;;0.95;0.90;;;16.10;99.90;;;;;;5029752;28;20224;-62
2023/05/07 05:53:51;;;;;;;0.90;0.90;;;16.30;99.90;;;;;;5030282;28;20204;-63
2023/05/07 05:56:18;;;;;;;0.70;0.70;;;16.30;99.90;;;;;;5030347;28;20217;-63
2023/05/07 05:58:47;;;;;;;0.80;0.80;;;16.40;99.90;;;;;;5030012;28;20221;-64
2023/05/07 06:01:14;;;;;;;0.80;0.80;;;16.60;99.90;;;;;;5027058;28;20235;-63
2023/05/07 06:03:41;;;;;;;0.70;0.70;;;16.70;99.90;;;;;;5046837;28;20274;-63
2023/05/07 06:06:07;;;;;;;0.80;0.73;;;16.80;99.90;;;;;;5035813;28;20206;-65
2023/05/07 06:08:34;;;;;;;0.95;0.95;;;16.80;99.90;;;;;;5036905;28;20204;-64
2023/05/07 06:11:02;;;;;;;0.80;0.80;;;16.90;99.90;;;;;;5029164;28;20232;-65
2023/05/07 06:13:29;;;;;;;0.80;0.80;;;17.00;99.90;;;;;;5030288;28;20695;-65
2023/05/07 06:15:57;;;;;;;0.80;0.80;;;17.00;99.90;;;;;;5030402;28;20201;-65
2023/05/07 06:18:25;;;;;;;1.30;0.90;;;17.10;99.90;;;;;;5028841;28;20243;-65
2023/05/07 06:20:53;;;;;;;1.00;1.00;;;17.00;99.90;;;;;;5030738;28;20750;-65
2023/05/07 06:23:20;;;;;;;1.00;1.00;;;16.90;99.90;;;;;;5031275;28;20200;-65
2023/05/07 06:25:50;;;;;;;0.90;0.90;;;16.90;99.90;;;;;;5031496;28;20201;-66
2023/05/07 06:28:17;;;;;;;1.20;1.10;;;16.90;99.90;;;;;;5031378;28;20208;-66
2023/05/07 06:30:44;;;;;;;1.20;1.10;;;16.80;99.90;;;;;;5030194;28;20790;-66
2023/05/07 06:33:12;;;;;;;0.90;0.90;;;16.80;99.90;;;;;;5030390;28;20564;-65
2023/05/07 06:35:39;;;;;;;1.00;1.00;;;16.90;99.90;;;;;;5030256;28;20295;-66
2023/05/07 06:38:06;;;;;;;1.10;1.10;;;16.90;99.90;;;;;;5030686;28;20586;-65
2023/05/07 06:40:32;;;;;;;1.10;1.10;;;16.90;99.90;;;;;;5029690;28;20656;-65
2023/05/07 06:42:59;;;;;;;1.20;1.20;;;17.00;99.90;;;;;;5030356;28;20208;-65
2023/05/07 06:45:26;;;;;;;1.10;1.10;;;17.10;99.90;;;;;;5030152;28;20213;-65
2023/05/07 06:47:53;;;;;;;1.08;1.08;;;17.20;99.90;;;;;;5029970;28;20200;-65
2023/05/07 06:50:21;;;;;;;1.00;1.00;;;17.20;99.90;;;;;;5030156;28;20231;-64
2023/05/07 06:52:48;;;;;;;1.20;1.20;;;17.40;99.90;;;;;;5030273;28;20212;-64
2023/05/07 06:55:15;;;;;;;1.50;1.40;;;17.40;99.90;;;;;;5030011;28;20213;-62
2023/05/07 06:57:42;;;;;;;1.25;1.25;;;17.40;99.90;;;;;;5028186;28;20216;-64
2023/05/07 07:00:10;;;;;;;1.25;1.25;;;17.30;99.90;;;;;;5029680;28;20229;-65
2023/05/07 07:02:37;;;;;;;1.40;1.40;;;17.30;99.90;;;;;;5038576;28;20214;-64
2023/05/07 07:05:05;;;;;;;1.40;1.30;;;17.30;99.90;;;;;;5031130;28;20204;-64
2023/05/07 07:07:33;;;;;;;1.52;1.42;;;17.20;99.90;;;;;;5039358;28;20204;-64
2023/05/07 07:10:00;;;;;;;1.30;1.20;;;17.20;99.90;;;;;;5038155;28;20664;-64
2023/05/07 07:12:26;;;;;;;1.17;1.17;;;17.00;99.90;;;;;;5037831;28;20205;-63
2023/05/07 07:14:53;;;;;;;1.33;1.33;;;17.00;99.90;;;;;;5049462;28;20204;-64
2023/05/07 07:17:20;;;;;;;1.30;1.30;;;17.20;99.90;;;;;;5048760;28;20795;-64
2023/05/07 07:19:47;;;;;;;1.40;1.30;;;17.40;99.90;;;;;;5048369;28;20247;-64
2023/05/07 07:22:14;;;;;;;1.10;1.10;;;17.50;99.90;;;;;;5049353;28;20228;-64
2023/05/07 07:24:42;;;;;;;1.20;1.20;;;17.60;99.90;;;;;;5049458;28;20210;-64
2023/05/07 07:27:09;;;;;;;1.67;1.58;;;17.60;99.90;;;;;;5049041;28;20212;-64
2023/05/07 07:29:35;;;;;;;1.67;1.58;;;17.70;99.90;;;;;;5049033;28;20206;-64
2023/05/07 07:32:02;;;;;;;1.58;1.20;;;17.60;99.90;;;;;;5052475;28;20228;-66
2023/05/07 07:34:30;;;;;;;1.20;1.20;;;17.60;99.90;;;;;;5052804;28;20214;-65
2023/05/07 07:36:57;;;;;;;1.73;1.30;;;17.70;99.90;;;;;;5053688;28;20210;-65
2023/05/07 07:39:23;;;;;;;1.10;1.10;;;17.60;99.90;;;;;;5053304;28;20263;-65
2023/05/07 07:41:52;;;;;;;1.10;1.10;;;17.90;99.90;;;;;;5052635;28;20733;-65
2023/05/07 07:44:18;;;;;;;1.00;1.00;;;18.30;99.90;;;;;;5052550;28;20216;-65
2023/05/07 07:46:45;;;;;;;1.30;1.30;;;18.60;99.90;;;;;;5052534;28;20295;-64
2023/05/07 07:49:12;;;;;;;1.00;1.00;;;18.50;99.90;;;;;;5052313;28;20196;-65
2023/05/07 07:51:39;;;;;;;1.08;1.08;;;18.60;99.90;;;;;;5052405;28;20236;-64
2023/05/07 07:54:06;;;;;;;0.90;0.90;;;18.70;99.90;;;;;;5052384;28;20215;-64
2023/05/07 07:56:34;;;;;;;1.27;1.23;;;19.00;99.90;;;;;;5052358;28;20204;-64
2023/05/07 07:59:03;;;;;;;0.90;0.90;;;19.00;99.90;;;;;;5052136;28;20211;-65
2023/05/07 08:01:31;;;;;;;1.00;1.00;;;19.10;99.90;;;;;;5052500;28;20227;-64
2023/05/07 08:03:58;;;;;;;1.52;1.10;;;19.30;99.90;;;;;;5052223;28;20208;-64
2023/05/07 08:06:26;;;;;;;1.02;0.93;;;19.10;99.90;;;;;;5052470;28;20226;-64
2023/05/07 08:08:52;;;;;;;0.70;0.70;;;19.20;99.90;;;;;;5050817;28;20236;-64
2023/05/07 08:11:19;;;;;;;0.80;0.80;;;19.10;99.90;;;;;;5052460;28;20240;-64
2023/05/07 08:13:47;;;;;;;0.90;0.90;;;19.50;99.90;;;;;;5052872;28;20203;-65
2023/05/07 08:16:15;;;;;;;0.73;0.73;;;19.80;99.90;;;;;;5051908;28;20710;-64
2023/05/07 08:18:42;;;;;;;0.80;0.80;;;20.10;99.90;;;;;;5051889;28;20754;-62
2023/05/07 08:21:09;;;;;;;1.10;1.00;;;20.20;99.90;;;;;;5051075;28;20243;-63
2023/05/07 08:23:36;;;;;;;0.77;0.77;;;20.20;99.90;;;;;;5052126;28;20200;-63
2023/05/07 08:26:03;;;;;;;0.77;0.77;;;20.40;99.90;;;;;;5051527;28;20225;-63
2023/05/07 08:28:30;;;;;;;1.25;1.15;;;20.50;99.90;;;;;;5051998;28;20325;-65
2023/05/07 08:30:59;;;;;;;1.15;1.05;;;20.40;99.90;;;;;;5056067;28;20245;-66
2023/05/07 08:33:27;;;;;;;0.90;0.90;;;20.20;99.90;;;;;;5059356;28;20208;-63
2023/05/07 08:35:54;;;;;;;0.80;0.80;;;20.30;99.90;;;;;;5057414;28;20204;-63
2023/05/07 08:38:21;;;;;;;1.00;1.00;;;20.30;99.90;;;;;;5052387;28;20326;-64
2023/05/07 08:40:48;;;;;;;1.75;1.00;;;20.40;99.90;;;;;;5050630;28;20224;-63
2023/05/07 08:43:15;;;;;;;1.00;1.00;;;20.60;99.90;;;;;;5051491;28;20208;-63
2023/05/07 08:45:42;;;;;;;0.90;0.90;;;20.80;99.90;;;;;;5052418;28;20206;-63
2023/05/07 08:48:15;;;;;;;0.82;0.82;;;20.90;99.90;;;;;;5051375;28;20234;-63
2023/05/07 08:50:43;;;;;;;0.90;0.90;;;21.10;99.90;;;;;;5050647;28;20645;-63
2023/05/07 08:53:10;;;;;;;0.80;0.80;;;21.30;99.90;;;;;;5051590;28;20204;-65
2023/05/07 08:55:37;;;;;;;0.90;0.90;;;21.30;99.90;;;;;;5051885;28;20283;-63
2023/05/07 08:58:04;;;;;;;0.90;0.90;;;21.20;99.90;;;;;;5053023;28;20951;-63
2023/05/07 09:00:31;;;;;;;1.05;0.98;;;21.20;99.90;;;;;;5051663;28;20706;-63
2023/05/07 09:02:58;;;;;;;0.90;0.90;;;21.20;99.90;;;;;;5052019;28;20326;-63
2023/05/07 09:05:24;;;;;;;0.90;0.90;;;21.40;99.90;;;;;;5051382;28;20689;-65
2023/05/07 09:07:53;;;;;;;0.85;0.85;;;21.40;99.90;;;;;;5051426;28;20214;-64
2023/05/07 09:10:21;;;;;;;1.02;1.02;;;21.50;99.90;;;;;;5050159;28;20311;-64
2023/05/07 09:12:48;;;;;;;0.98;0.98;;;21.60;99.90;;;;;;5049612;28;20299;-65
2023/05/07 09:15:15;;;;;;;1.13;1.13;;;21.60;99.90;;;;;;5051930;28;20204;-65
2023/05/07 09:17:43;;;;;;;0.80;0.80;;;21.60;99.90;;;;;;5052377;28;20239;-64
2023/05/07 09:20:10;;;;;;;0.90;0.90;;;21.70;99.90;;;;;;5051157;28;20315;-64
2023/05/07 09:22:38;;;;;;;1.15;1.10;;;21.60;99.90;;;;;;5052485;28;20214;-65
2023/05/07 09:25:08;;;;;;;1.10;1.10;;;21.60;99.90;;;;;;5051893;28;20206;-64
2023/05/07 09:27:34;;;;;;;1.35;1.25;;;21.70;99.90;;;;;;5052234;28;20577;-64
2023/05/07 09:30:06;;;;;;;1.20;1.20;;;21.80;99.90;;;;;;5051204;28;20219;-64
2023/05/07 09:32:35;;;;;;;1.13;1.13;;;21.90;99.90;;;;;;5051988;28;20581;-65
2023/05/07 09:35:02;;;;;;;0.90;0.90;;;21.90;99.90;;;;;;5052022;28;20212;-65
2023/05/07 09:37:32;;;;;;;1.20;1.20;;;22.10;99.90;;;;;;5051741;28;20736;-65
2023/05/07 09:39:59;;;;;;;1.20;1.20;;;22.20;99.90;;;;;;5051005;28;20223;-65
2023/05/07 09:42:27;;;;;;;1.10;1.10;;;22.20;99.90;;;;;;5051567;28;20293;-64
2023/05/07 09:44:54;;;;;;;1.08;1.08;;;22.30;99.90;;;;;;5050805;28;20204;-65
2023/05/07 09:47:23;;;;;;;1.40;1.30;;;22.20;99.90;;;;;;5050472;28;20674;-64
2023/05/07 09:49:55;;;;;;;1.27;1.27;;;22.20;99.90;;;;;;5049605;28;20551;-64
2023/05/07 09:52:22;;;;;;;1.38;1.27;;;22.10;99.90;;;;;;5051375;28;20612;-65
2023/05/07 09:54:51;;;;;;;1.30;1.30;;;22.40;99.90;;;;;;5052648;28;20551;-64
2023/05/07 09:57:20;;;;;;;1.17;1.17;;;22.50;99.90;;;;;;5049647;28;21375;-64
2023/05/07 09:59:50;;;;;;;1.05;1.05;;;22.60;99.90;;;;;;5031018;28;20205;-64
2023/05/07 10:02:19;;;;;;;1.20;1.20;;;22.60;99.90;;;;;;5031116;28;20236;-64
2023/05/07 10:04:46;;;;;;;1.10;1.10;;;22.70;99.90;;;;;;5032191;28;20208;-64
2023/05/07 10:07:14;;;;;;;1.25;1.25;;;22.60;99.90;;;;;;5031438;28;20208;-64
2023/05/07 10:09:43;;;;;;;1.13;1.13;;;22.40;99.90;;;;;;5029483;28;20259;-65
2023/05/07 10:12:10;;;;;;;1.00;1.00;;;22.60;99.90;;;;;;5030072;28;20236;-64
2023/05/07 10:14:38;;;;;;;1.17;1.17;;;22.80;99.90;;;;;;5030924;28;20200;-64
2023/05/07 10:17:07;;;;;;;1.20;1.20;;;22.90;99.90;;;;;;5030304;28;20211;-65
2023/05/07 10:19:36;;;;;;;1.05;1.00;;;22.80;99.90;;;;;;5030816;28;20572;-64
2023/05/07 10:22:06;;;;;;;1.10;1.10;;;22.90;99.90;;;;;;5032167;28;20228;-64
2023/05/07 10:24:34;;;;;;;1.10;1.10;;;23.10;99.90;;;;;;5031604;28;20319;-65
2023/05/07 10:27:04;;;;;;;1.00;1.00;;;23.20;99.90;;;;;;5030441;28;20211;-65
2023/05/07 10:29:43;;;;;;;1.10;1.10;;;23.10;99.90;;;;;;5029064;28;20207;-65
2023/05/07 10:32:27;;;;;;;1.20;1.10;;;23.30;99.90;;;;;;5030053;28;20230;-64
2023/05/07 10:34:56;;;;;;;1.23;1.23;;;23.50;99.90;;;;;;5029768;28;20214;-64
2023/05/07 10:37:25;;;;;;;1.15;1.15;;;23.40;99.90;;;;;;5029765;28;20223;-64
2023/05/07 10:39:53;;;;;;;1.15;1.15;;;23.50;99.90;;;;;;5028952;28;20610;-64
2023/05/07 10:42:20;;;;;;;1.20;1.10;;;23.70;99.90;;;;;;5029839;28;20235;-64
2023/05/07 10:44:47;;;;;;;1.02;1.02;;;23.60;99.90;;;;;;5028258;28;20287;-64
2023/05/07 10:47:18;;;;;;;1.17;1.17;;;23.60;99.90;;;;;;5030325;28;20299;-64
2023/05/07 10:50:29;;;;;;;1.30;1.20;;;23.60;99.90;;;;;;5029884;28;20204;-65
2023/05/07 10:53:24;;;;;;;1.00;1.00;;;23.60;99.90;;;;;;5001900;28;20877;-65
2023/05/07 10:55:52;;;;;;;0.98;0.98;;;23.60;99.90;;;;;;5029757;28;20688;-64
2023/05/07 10:58:26;;;;;;;1.15;1.10;;;23.70;99.90;;;;;;5030205;28;20211;-66
2023/05/07 11:00:57;;;;;;;1.08;1.08;;;23.90;99.90;;;;;;5029879;28;20611;-65
2023/05/07 11:03:26;;;;;;;1.00;1.00;;;23.90;99.90;;;;;;5030809;28;20291;-63
2023/05/07 11:06:10;;;;;;;1.13;1.00;;;24.10;99.90;;;;;;5032389;28;20300;-63
2023/05/07 11:08:54;;;;;;;0.88;0.88;;;24.10;99.90;;;;;;5034155;28;20619;-64
2023/05/07 11:11:42;;;;;;;0.80;0.80;;;24.20;99.90;;;;;;5032443;28;20263;-63
2023/05/07 11:14:09;;;;;;;0.90;0.90;;;24.20;99.90;;;;;;5033577;28;20201;-64
2023/05/07 11:16:37;;;;;;;1.00;1.00;;;24.20;99.90;;;;;;5034706;28;20204;-66
2023/05/07 11:19:05;;;;;;;0.90;0.90;;;24.20;99.90;;;;;;5032473;28;20208;-66
2023/05/07 11:21:34;;;;;;;0.88;0.88;;;24.20;99.90;;;;;;5033200;28;20220;-64
2023/05/07 11:24:01;;;;;;;0.90;0.90;;;24.30;99.90;;;;;;5033082;28;20307;-64
2023/05/07 11:26:30;;;;;;;1.10;1.10;;;24.30;99.90;;;;;;5033108;28;20236;-64
2023/05/07 11:29:00;;;;;;;0.82;0.82;;;24.10;99.90;;;;;;5033065;28;20695;-64
2023/05/07 11:31:29;;;;;;;0.90;0.90;;;24.10;99.90;;;;;;5032525;28;20260;-65
2023/05/07 11:33:56;;;;;;;0.90;0.90;;;24.20;99.90;;;;;;5032943;28;20211;-65
2023/05/07 11:36:25;;;;;;;1.10;1.10;;;24.20;99.90;;;;;;5033406;28;20299;-65
2023/05/07 11:38:52;;;;;;;0.90;0.90;;;24.20;99.90;;;;;;5033469;28;20212;-66
2023/05/07 11:41:20;;;;;;;1.08;1.08;;;24.10;99.90;;;;;;5033036;28;20702;-65
2023/05/07 11:44:00;;;;;;;1.10;1.00;;;24.00;99.90;;;;;;5034810;28;20216;-65
2023/05/07 11:46:28;;;;;;;1.02;1.00;;;24.00;99.90;;;;;;5033359;28;20211;-64
2023/05/07 11:48:55;;;;;;;1.05;1.00;;;24.10;99.90;;;;;;5032317;28;20208;-64
2023/05/07 11:51:25;;;;;;;1.13;1.10;;;24.20;99.90;;;;;;5032999;28;20224;-64
2023/05/07 11:53:53;;;;;;;1.00;1.00;;;24.10;99.90;;;;;;5034273;28;20205;-63
2023/05/07 11:56:20;;;;;;;0.70;0.70;;;24.00;99.90;;;;;;5033733;28;20597;-65
2023/05/07 11:58:48;;;;;;;1.00;1.00;;;24.00;99.90;;;;;;5033539;28;20212;-64
2023/05/07 12:01:16;;;;;;;0.82;0.82;;;24.00;99.90;;;;;;5031324;28;20228;-65
2023/05/07 12:03:45;;;;;;;0.90;0.90;;;24.10;99.90;;;;;;5032568;28;20201;-64
2023/05/07 12:06:13;;;;;;;0.70;0.70;;;24.00;99.90;;;;;;5032264;28;20210;-65
2023/05/07 12:08:42;;;;;;;1.00;1.00;;;24.10;99.90;;;;;;5032298;28;20212;-64
2023/05/07 12:11:11;;;;;;;1.17;0.95;;;24.30;99.90;;;;;;5031329;28;20251;-64
2023/05/07 12:13:38;;;;;;;0.90;0.90;;;24.40;99.90;;;;;;5032465;28;20262;-64
2023/05/07 12:16:06;;;;;;;0.90;0.90;;;24.40;99.90;;;;;;5032180;28;20234;-64
2023/05/07 12:18:35;;;;;;;1.00;0.90;;;24.40;99.90;;;;;;5032325;28;20212;-64
2023/05/07 12:21:02;;;;;;;1.10;0.75;;;24.40;99.90;;;;;;5031257;28;20695;-64
2023/05/07 12:23:30;;;;;;;0.75;0.75;;;24.20;99.90;;;;;;5032456;28;20216;-64
2023/05/07 12:25:58;;;;;;;0.77;0.77;;;24.30;99.90;;;;;;5031961;28;20208;-64
2023/05/07 12:28:25;;;;;;;0.70;0.70;;;24.40;99.90;;;;;;5030591;28;20211;-64
2023/05/07 12:30:53;;;;;;;0.90;0.90;;;24.40;99.90;;;;;;5032837;28;20591;-63
2023/05/07 12:33:24;;;;;;;0.77;0.77;;;24.30;99.90;;;;;;5033212;28;20675;-64
2023/05/07 12:35:51;;;;;;;1.27;0.80;;;24.20;99.90;;;;;;5032844;28;20200;-63
2023/05/07 12:38:19;;;;;;;0.75;0.75;;;24.10;99.90;;;;;;5032347;28;20204;-64
2023/05/07 12:40:50;;;;;;;0.90;0.90;;;24.10;99.90;;;;;;5030730;28;20224;-64
2023/05/07 12:43:19;;;;;;;1.00;1.00;;;24.10;99.90;;;;;;5032262;28;20219;-64
2023/05/07 12:45:47;;;;;;;1.00;1.00;;;24.00;99.90;;;;;;5031716;28;21015;-65
2023/05/07 12:48:14;;;;;;;1.00;1.00;;;24.00;99.90;;;;;;5031911;28;20255;-66
2023/05/07 12:50:41;;;;;;;1.35;1.10;;;23.90;99.90;;;;;;5031210;28;20224;-65